Pageland, South Carolina
Current Conditions -  °F | °C
As of 11:08 AM on Monday 22 Dec 2014 (Local Time) from KEQY Reporting Station
Haze Haze  
Wind Chill:   Ceiling: 400
Heat Index:   Visibility: 3mi
Dew Point:   Wind: 9mph
Humidity: 93%   Direction: 20°NNE
Pressure: 30.13"   Gusts: NA
Location:  34.77°N, 80.39°W
Report Text: KEQY 221608Z AUTO 02008KT 3SM BR OVC004 04/03 A3013 RMK AO2 T00390028
Loading
Personal Weather Stations






























Interactive Weather Map New forecast layout! Learn more

10-Day Weather Forecast

Advertisements
Track Severe Weather on mobile